Time;durP1;ratioP1;P1;durP2;ratioP2;P2;SDS_P1;SDS_P2;PMS_P1;PMS_P2;Temp;Humidity;BMP_temperature;BMP_pressure;BME280_temperature;BME280_humidity;BME280_pressure;Samples;Min_cycle;Max_cycle;Signal;HPM_P1;HPM_P2
2022/08/14 00:02:10;;;;;;;0.00;0.00;;;;;;;23.72;43.25;100614.81;7354531;19;20007;-61
2022/08/14 00:04:38;;;;;;;0.00;0.00;;;;;;;23.74;43.11;100626.22;7358269;19;20019;-62
2022/08/14 00:07:04;;;;;;;0.00;0.00;;;;;;;23.70;43.17;100616.75;7359280;19;20014;-62
2022/08/14 00:09:30;;;;;;;0.00;0.00;;;;;;;23.66;43.40;100613.47;7359476;19;20044;-61
2022/08/14 00:11:55;;;;;;;0.00;0.00;;;;;;;23.53;43.76;100605.59;7361344;19;20010;-61
2022/08/14 00:14:22;;;;;;;0.00;0.00;;;;;;;23.59;43.42;100608.72;7356810;19;20022;-61
2022/08/14 00:16:47;;;;;;;0.00;0.00;;;;;;;23.53;43.35;100604.75;7359615;19;20126;-62
2022/08/14 00:19:13;;;;;;;0.00;0.00;;;;;;;23.50;43.92;100605.81;7358035;19;20085;-62
2022/08/14 00:21:38;;;;;;;0.00;0.00;;;;;;;23.37;44.25;100594.44;7359466;19;20039;-61
2022/08/14 00:24:04;;;;;;;0.00;0.00;;;;;;;23.41;44.34;100601.19;7361194;19;20015;-61
2022/08/14 00:26:29;;;;;;;0.00;0.00;;;;;;;23.41;44.21;100603.00;7356831;19;20039;-62
2022/08/14 00:28:55;;;;;;;0.00;0.00;;;;;;;23.35;44.38;100601.69;7358481;19;20014;-61
2022/08/14 00:31:21;;;;;;;0.00;0.00;;;;;;;23.34;44.15;100596.47;7358741;19;20945;-62
2022/08/14 00:33:47;;;;;;;0.00;0.00;;;;;;;23.28;43.96;100600.47;7356951;19;20013;-61
2022/08/14 00:36:12;;;;;;;0.00;0.00;;;;;;;23.24;43.85;100599.00;7357968;19;20014;-62
2022/08/14 00:38:38;;;;;;;0.00;0.00;;;;;;;23.23;43.96;100602.63;7361596;19;20466;-62
2022/08/14 00:41:05;;;;;;;0.00;0.00;;;;;;;23.19;43.75;100590.50;7361793;19;20014;-62
2022/08/14 00:43:32;;;;;;;0.00;0.00;;;;;;;23.16;43.78;100594.25;7361147;19;20010;-61
2022/08/14 00:46:04;;;;;;;0.00;0.00;;;;;;;23.14;44.13;100587.34;7359193;19;20462;-60
2022/08/14 00:48:30;;;;;;;0.00;0.00;;;;;;;23.10;43.84;100585.88;7361389;19;20015;-62
2022/08/14 00:50:56;;;;;;;0.00;0.00;;;;;;;23.07;44.95;100587.00;7362062;19;20043;-62
2022/08/14 00:53:22;;;;;;;0.00;0.00;;;;;;;23.04;44.66;100588.06;7361247;19;20021;-61
2022/08/14 00:55:49;;;;;;;0.00;0.00;;;;;;;23.02;45.74;100590.00;7362021;19;20014;-61
2022/08/14 00:58:30;;;;;;;0.00;0.00;;;;;;;22.97;46.00;100589.50;7362048;19;20039;-61
2022/08/14 01:01:01;;;;;;;0.00;0.00;;;;;;;22.96;46.01;100590.47;7363308;19;20027;-61
2022/08/14 01:03:28;;;;;;;0.00;0.00;;;;;;;22.92;46.66;100589.00;7359973;19;20020;-61
2022/08/14 01:05:55;;;;;;;0.05;0.05;;;;;;;22.82;46.86;100572.00;7361304;19;20037;-62
2022/08/14 01:08:24;;;;;;;0.00;0.00;;;;;;;22.87;46.65;100583.16;7361173;19;20006;-60
2022/08/14 01:10:50;;;;;;;0.00;0.00;;;;;;;22.83;47.00;100576.34;7362798;19;20036;-62
2022/08/14 01:13:20;;;;;;;0.00;0.00;;;;;;;22.83;46.58;100578.19;7360148;19;20542;-61
2022/08/14 01:15:48;;;;;;;0.00;0.00;;;;;;;22.80;47.08;100581.91;7362064;19;20014;-60
2022/08/14 01:21:14;;;;;;;0.00;0.00;;;;;;;22.76;48.03;100572.47;7361900;19;20746;-61
2022/08/14 01:23:52;;;;;;;0.00;0.00;;;;;;;22.76;46.10;100567.16;7358320;19;20018;-61
2022/08/14 01:26:21;;;;;;;0.00;0.00;;;;;;;22.72;48.08;100557.69;7361049;19;20246;-61
2022/08/14 01:28:54;;;;;;;0.00;0.00;;;;;;;22.71;47.92;100559.50;7359930;19;20017;-61
2022/08/14 01:31:22;;;;;;;0.00;0.00;;;;;;;22.69;48.06;100549.94;7361807;19;20513;-61
2022/08/14 01:33:51;;;;;;;0.00;0.00;;;;;;;22.67;47.71;100559.84;7359802;19;20040;-61
2022/08/14 01:36:22;;;;;;;0.00;0.00;;;;;;;22.65;48.31;100551.97;7358970;19;20101;-61
2022/08/14 01:38:50;;;;;;;0.00;0.00;;;;;;;22.62;47.58;100548.72;7360748;19;20478;-61
2022/08/14 01:41:20;;;;;;;0.00;0.00;;;;;;;22.61;48.35;100541.66;7363036;19;20066;-62
2022/08/14 01:43:53;;;;;;;0.00;0.00;;;;;;;22.59;47.29;100528.47;7356081;19;20018;-61
2022/08/14 01:46:23;;;;;;;0.00;0.00;;;;;;;22.58;47.83;100536.59;7361301;19;20497;-61
2022/08/14 01:48:53;;;;;;;0.00;0.00;;;;;;;22.53;48.80;100543.09;7359726;19;20105;-62
2022/08/14 01:51:23;;;;;;;0.05;0.05;;;;;;;22.51;48.46;100534.41;7362305;19;20002;-61
2022/08/14 01:53:57;;;;;;;0.00;0.00;;;;;;;22.49;47.62;100533.66;7361744;19;20125;-61
2022/08/14 01:56:36;;;;;;;0.00;0.00;;;;;;;22.46;47.63;100533.91;7352834;19;20913;-61
2022/08/14 01:59:07;;;;;;;0.00;0.00;;;;;;;22.42;48.11;100529.75;7351622;19;20011;-61
2022/08/14 02:01:34;;;;;;;0.00;0.00;;;;;;;22.39;48.75;100526.47;7360992;19;20012;-61
2022/08/14 02:04:01;;;;;;;0.00;0.00;;;;;;;22.35;48.76;100519.66;7362051;19;20002;-61
2022/08/14 02:06:27;;;;;;;0.00;0.00;;;;;;;22.32;48.86;100523.44;7359988;19;20744;-61
2022/08/14 02:08:53;;;;;;;0.00;0.00;;;;;;;22.17;48.94;100495.31;7360883;19;20075;-61
2022/08/14 02:11:22;;;;;;;0.00;0.00;;;;;;;22.18;48.56;100502.31;7360175;19;20036;-61
2022/08/14 02:14:03;;;;;;;0.00;0.00;;;;;;;22.23;47.61;100510.81;7359983;19;20021;-61
2022/08/14 02:16:32;;;;;;;0.00;0.00;;;;;;;22.09;48.48;100492.31;7357506;19;20022;-62
2022/08/14 02:19:01;;;;;;;0.00;0.00;;;;;;;22.17;48.54;100505.94;7360828;19;20022;-61
2022/08/14 02:21:28;;;;;;;0.00;0.00;;;;;;;22.07;49.41;100488.94;7357179;19;20026;-61
2022/08/14 02:23:54;;;;;;;0.00;0.00;;;;;;;22.10;49.53;100502.00;7361401;19;20036;-61
2022/08/14 02:26:28;;;;;;;0.00;0.00;;;;;;;22.08;48.98;100490.63;7359500;19;20018;-61
2022/08/14 02:28:59;;;;;;;0.00;0.00;;;;;;;21.93;49.50;100476.66;7359589;19;20011;-61
2022/08/14 02:31:31;;;;;;;0.00;0.00;;;;;;;22.00;49.03;100489.41;7355192;19;20014;-62
2022/08/14 02:34:03;;;;;;;0.00;0.00;;;;;;;21.97;49.86;100492.28;7360351;19;20462;-61
2022/08/14 02:36:28;;;;;;;0.00;0.00;;;;;;;21.93;49.34;100485.47;7359481;19;20021;-61
2022/08/14 02:38:54;;;;;;;0.00;0.00;;;;;;;21.91;49.71;100479.44;7357430;19;20014;-62
2022/08/14 02:41:20;;;;;;;0.00;0.00;;;;;;;21.86;49.87;100481.59;7360761;19;20011;-61
2022/08/14 02:43:45;;;;;;;0.00;0.00;;;;;;;21.84;49.70;100486.16;7358773;19;20007;-62
2022/08/14 02:46:11;;;;;;;0.00;0.00;;;;;;;21.83;49.61;100488.94;7357413;19;20010;-61
2022/08/14 02:48:39;;;;;;;0.00;0.00;;;;;;;21.81;49.24;100486.41;7359137;19;20007;-61
2022/08/14 02:51:08;;;;;;;0.00;0.00;;;;;;;21.77;49.15;100476.94;7359660;19;20050;-60
2022/08/14 02:53:34;;;;;;;0.00;0.00;;;;;;;21.74;49.81;100482.47;7358555;19;20066;-61
2022/08/14 02:56:00;;;;;;;0.00;0.00;;;;;;;21.70;48.91;100476.53;7360237;19;20715;-62
2022/08/14 02:58:26;;;;;;;0.00;0.00;;;;;;;21.68;49.33;100480.25;7356292;19;20375;-61
2022/08/14 03:00:53;;;;;;;0.00;0.00;;;;;;;21.65;49.88;100477.84;7359341;19;20928;-61
2022/08/14 03:03:22;;;;;;;0.00;0.00;;;;;;;21.63;49.40;100479.75;7352720;19;20033;-61
2022/08/14 03:05:50;;;;;;;0.00;0.00;;;;;;;21.57;50.19;100470.41;7357163;19;20052;-62
2022/08/14 03:08:16;;;;;;;0.00;0.00;;;;;;;21.55;50.18;100460.88;7361313;19;20054;-61
2022/08/14 03:10:42;;;;;;;0.00;0.00;;;;;;;21.52;51.13;100464.56;7369000;19;20466;-61
2022/08/14 03:13:09;;;;;;;0.00;0.00;;;;;;;21.49;50.81;100465.66;7364373;19;20095;-61
2022/08/14 03:15:39;;;;;;;0.00;0.00;;;;;;;21.47;51.10;100464.91;7367271;19;20030;-61
2022/08/14 03:18:09;;;;;;;0.00;0.00;;;;;;;21.45;50.26;100471.31;7354802;19;20919;-61
2022/08/14 03:20:35;;;;;;;0.00;0.00;;;;;;;21.40;51.33;100463.66;7369223;19;20434;-61
2022/08/14 03:23:00;;;;;;;0.00;0.00;;;;;;;21.39;51.39;100466.41;7365606;19;20027;-61
2022/08/14 03:25:29;;;;;;;0.00;0.00;;;;;;;21.37;51.39;100457.72;7368391;19;25541;-61
2022/08/14 03:27:55;;;;;;;0.00;0.00;;;;;;;21.35;50.96;100459.63;7366538;19;20343;-61
2022/08/14 03:30:20;;;;;;;0.00;0.00;;;;;;;21.33;51.58;100454.41;7364100;19;20018;-61
2022/08/14 03:32:46;;;;;;;0.00;0.00;;;;;;;21.31;51.40;100448.38;7367284;19;20022;-60
2022/08/14 03:35:11;;;;;;;0.00;0.00;;;;;;;21.30;51.68;100444.03;7365797;19;20018;-61
2022/08/14 03:37:37;;;;;;;0.00;0.00;;;;;;;21.29;51.39;100447.63;7366534;19;20010;-61
2022/08/14 03:40:05;;;;;;;0.00;0.00;;;;;;;21.28;51.71;100442.41;7365185;19;20006;-61
2022/08/14 03:42:30;;;;;;;0.00;0.00;;;;;;;21.26;51.63;100445.16;7364277;19;20025;-61
2022/08/14 03:44:56;;;;;;;0.00;0.00;;;;;;;21.22;51.31;100433.91;7367945;19;20011;-61
2022/08/14 03:47:23;;;;;;;0.00;0.00;;;;;;;21.17;51.15;100428.06;7366701;19;20284;-61
2022/08/14 03:49:48;;;;;;;0.00;0.00;;;;;;;21.20;51.34;100430.53;7366083;19;20026;-62
2022/08/14 03:52:14;;;;;;;0.00;0.00;;;;;;;21.06;51.15;100406.75;7365223;19;20060;-61
2022/08/14 03:54:40;;;;;;;0.00;0.00;;;;;;;21.16;50.81;100425.53;7367169;19;20060;-61
2022/08/14 03:57:06;;;;;;;0.00;0.00;;;;;;;21.12;50.75;100419.59;7368198;19;20755;-61
2022/08/14 03:59:32;;;;;;;0.00;0.00;;;;;;;21.10;50.61;100413.56;7366254;19;20057;-61
2022/08/14 04:01:57;;;;;;;0.00;0.00;;;;;;;21.09;50.42;100405.69;7366617;19;20022;-61
2022/08/14 04:04:22;;;;;;;0.00;0.00;;;;;;;21.06;50.41;100405.91;7366636;19;20018;-61
2022/08/14 04:06:50;;;;;;;0.00;0.00;;;;;;;21.03;50.70;100403.47;7365952;19;20010;-62
2022/08/14 04:09:15;;;;;;;0.00;0.00;;;;;;;21.01;50.33;100400.06;7364311;19;20030;-60
2022/08/14 04:11:41;;;;;;;0.00;0.00;;;;;;;20.96;50.61;100395.94;7365094;19;20015;-61
2022/08/14 04:14:06;;;;;;;0.00;0.00;;;;;;;20.94;51.02;100392.56;7363675;19;20027;-61
2022/08/14 04:16:32;;;;;;;0.00;0.00;;;;;;;20.90;50.81;100384.91;7364434;19;20011;-61
2022/08/14 04:19:00;;;;;;;0.00;0.00;;;;;;;20.88;50.53;100390.34;7363198;19;20696;-61
2022/08/14 04:21:28;;;;;;;0.00;0.00;;;;;;;20.86;50.84;100397.53;7365454;19;20017;-61
2022/08/14 04:23:57;;;;;;;0.00;0.00;;;;;;;20.83;50.75;100389.78;7364802;19;20014;-61
2022/08/14 04:26:23;;;;;;;0.00;0.00;;;;;;;20.80;50.86;100390.03;7367212;19;20003;-62
2022/08/14 04:28:49;;;;;;;0.00;0.00;;;;;;;20.78;51.15;100391.91;7365582;19;20014;-61
2022/08/14 04:31:17;;;;;;;0.00;0.00;;;;;;;20.74;50.70;100390.44;7365604;19;20018;-61
2022/08/14 04:33:43;;;;;;;0.00;0.00;;;;;;;20.72;50.68;100392.34;7366000;19;20017;-61
2022/08/14 04:36:08;;;;;;;0.00;0.00;;;;;;;20.69;50.05;100379.31;7365553;19;22326;-61
2022/08/14 04:44:03;;;;;;;0.00;0.00;;;;;;;20.59;51.33;100375.59;7364281;19;20035;-61
2022/08/14 04:46:29;;;;;;;0.00;0.00;;;;;;;20.58;51.55;100376.53;7366731;19;20966;-61
2022/08/14 04:48:57;;;;;;;0.00;0.00;;;;;;;20.56;50.92;100376.66;7363982;19;20564;-61
2022/08/14 04:51:26;;;;;;;0.00;0.00;;;;;;;20.51;51.20;100372.63;7366865;19;20654;-61
2022/08/14 04:53:53;;;;;;;0.00;0.00;;;;;;;20.51;51.48;100376.13;7364392;19;20014;-61
2022/08/14 04:56:21;;;;;;;0.00;0.00;;;;;;;20.49;51.67;100371.91;7364215;19;20077;-61
2022/08/14 04:58:49;;;;;;;0.00;0.00;;;;;;;20.46;52.42;100365.81;7360369;19;21839;-61
2022/08/14 05:01:15;;;;;;;0.00;0.00;;;;;;;20.36;52.62;100356.78;7362921;19;20742;-61
2022/08/14 05:03:41;;;;;;;0.00;0.00;;;;;;;20.38;52.36;100356.69;7366005;19;20017;-61
2022/08/14 05:06:09;;;;;;;0.00;0.00;;;;;;;20.41;52.98;100367.91;7362580;19;20035;-60
2022/08/14 05:08:36;;;;;;;0.00;0.00;;;;;;;20.35;52.83;100360.38;7363720;19;20735;-61
2022/08/14 05:11:05;;;;;;;0.05;0.05;;;;;;;20.38;53.13;100370.78;7365020;19;20009;-61
2022/08/14 05:13:32;;;;;;;0.00;0.00;;;;;;;20.36;52.89;100364.72;7363073;19;20010;-61
2022/08/14 05:15:59;;;;;;;0.00;0.00;;;;;;;20.36;53.03;100361.22;7364719;19;20011;-61
2022/08/14 05:18:33;;;;;;;0.10;0.10;;;;;;;20.37;52.03;100365.56;7362211;19;20019;-61
2022/08/14 05:21:01;;;;;;;0.00;0.00;;;;;;;20.23;53.12;100342.69;7365876;19;20010;-61
2022/08/14 05:23:29;;;;;;;0.00;0.00;;;;;;;20.29;53.07;100347.56;7364042;19;20710;-61
2022/08/14 05:26:01;;;;;;;0.00;0.00;;;;;;;20.37;53.57;100366.41;7362798;19;20695;-61
2022/08/14 05:28:29;;;;;;;0.00;0.00;;;;;;;20.37;53.96;100358.47;7363528;19;20007;-61
2022/08/14 05:30:57;;;;;;;0.00;0.00;;;;;;;20.38;54.34;100359.34;7363261;19;20013;-61
2022/08/14 05:33:27;;;;;;;0.00;0.00;;;;;;;20.38;54.20;100360.19;7364376;19;20052;-61
2022/08/14 05:35:59;;;;;;;0.00;0.00;;;;;;;20.39;54.42;100359.22;7364729;19;20009;-61
2022/08/14 05:38:28;;;;;;;0.00;0.00;;;;;;;20.38;54.67;100357.53;7361399;19;20039;-61
2022/08/14 05:40:55;;;;;;;0.00;0.00;;;;;;;20.40;54.30;100360.91;7361865;19;20010;-61
2022/08/14 05:43:21;;;;;;;0.00;0.00;;;;;;;20.39;54.58;100364.53;7362152;19;20018;-61
2022/08/14 05:45:47;;;;;;;0.00;0.00;;;;;;;20.41;54.23;100365.25;7364161;19;20020;-61
2022/08/14 05:48:14;;;;;;;0.00;0.00;;;;;;;20.40;54.49;100368.88;7364282;19;20007;-61
2022/08/14 05:50:40;;;;;;;0.00;0.00;;;;;;;20.43;54.80;100368.69;7363539;19;20014;-61
2022/08/14 05:53:06;;;;;;;0.00;0.00;;;;;;;20.43;54.48;100360.72;7365142;19;22137;-61
2022/08/14 05:55:31;;;;;;;0.00;0.00;;;;;;;20.45;54.29;100369.41;7362346;19;20115;-61
2022/08/14 05:58:02;;;;;;;0.00;0.00;;;;;;;20.49;54.50;100369.25;7353433;19;20024;-61
2022/08/14 06:00:37;;;;;;;0.00;0.00;;;;;;;20.50;54.72;100370.94;7360227;19;20019;-61
2022/08/14 06:03:04;;;;;;;0.00;0.00;;;;;;;20.50;54.19;100371.78;7361418;19;20007;-61
2022/08/14 06:05:30;;;;;;;0.00;0.00;;;;;;;20.51;54.36;100375.28;7357083;19;20013;-61
2022/08/14 06:07:57;;;;;;;0.00;0.00;;;;;;;20.54;54.43;100383.03;7359755;19;20010;-61
2022/08/14 06:10:22;;;;;;;0.00;0.00;;;;;;;20.55;54.22;100371.47;7360665;19;20546;-61
2022/08/14 06:12:48;;;;;;;0.00;0.00;;;;;;;20.56;54.77;100373.16;7358944;19;20011;-61
2022/08/14 06:15:13;;;;;;;0.00;0.00;;;;;;;20.59;54.93;100370.31;7356896;19;20904;-61
2022/08/14 06:17:42;;;;;;;0.00;0.00;;;;;;;20.63;54.23;100372.63;7362213;19;20026;-61
2022/08/14 06:20:08;;;;;;;0.00;0.00;;;;;;;20.64;54.68;100365.53;7358437;19;20459;-61
2022/08/14 06:22:34;;;;;;;0.00;0.00;;;;;;;20.65;54.60;100360.09;7361085;19;22115;-61
2022/08/14 06:24:59;;;;;;;0.00;0.00;;;;;;;20.67;55.42;100363.47;7358549;19;20018;-61
2022/08/14 06:27:24;;;;;;;0.00;0.00;;;;;;;20.75;54.97;100370.91;7360180;19;20094;-61
2022/08/14 06:29:50;;;;;;;0.00;0.00;;;;;;;20.79;54.89;100368.91;7358257;19;20013;-62
2022/08/14 06:32:15;;;;;;;0.10;0.10;;;;;;;20.83;54.55;100362.41;7358428;19;20015;-61
2022/08/14 06:34:40;;;;;;;0.00;0.00;;;;;;;20.88;54.19;100361.16;7358772;19;20047;-61
2022/08/14 06:37:06;;;;;;;0.00;0.00;;;;;;;20.93;54.09;100359.00;7359651;19;20028;-61
2022/08/14 06:39:32;;;;;;;0.00;0.00;;;;;;;20.97;54.08;100357.81;7359736;19;20018;-61
2022/08/14 06:41:58;;;;;;;0.00;0.00;;;;;;;21.05;53.04;100359.94;7361075;19;20010;-60
2022/08/14 06:44:24;;;;;;;0.00;0.00;;;;;;;21.11;52.46;100358.63;7364807;19;20015;-61
2022/08/14 06:46:49;;;;;;;0.00;0.00;;;;;;;21.17;53.06;100353.72;7369711;19;20481;-62
2022/08/14 06:49:15;;;;;;;0.00;0.00;;;;;;;21.24;52.43;100354.16;7364339;19;20018;-61
2022/08/14 06:51:45;;;;;;;0.00;0.00;;;;;;;21.32;52.24;100348.28;7365886;19;20016;-61
2022/08/14 06:54:12;;;;;;;0.00;0.00;;;;;;;21.39;52.45;100349.53;7365797;19;20534;-61
2022/08/14 06:56:38;;;;;;;0.00;0.00;;;;;;;21.46;52.67;100348.97;7366699;19;20026;-61
2022/08/14 06:59:03;;;;;;;0.00;0.00;;;;;;;21.44;52.52;100332.31;7365259;19;20437;-61
2022/08/14 07:07:14;;;;;;;0.00;0.00;;;;;;;21.78;52.83;100335.09;7364635;19;20017;-61
2022/08/14 07:09:40;;;;;;;0.00;0.00;;;;;;;21.88;52.80;100346.72;7364507;19;20486;-62
2022/08/14 07:12:05;;;;;;;0.00;0.00;;;;;;;21.96;52.96;100341.69;7365810;19;20011;-61
2022/08/14 07:14:31;;;;;;;0.00;0.00;;;;;;;22.03;52.69;100340.25;7360975;19;20007;-61
2022/08/14 07:16:56;;;;;;;0.00;0.00;;;;;;;22.13;52.77;100339.59;7364615;19;20010;-62
2022/08/14 07:19:22;;;;;;;0.00;0.00;;;;;;;22.20;54.50;100331.03;7358418;19;20008;-62
2022/08/14 07:21:48;;;;;;;0.00;0.00;;;;;;;22.29;53.14;100334.78;7364894;19;20357;-61
2022/08/14 07:24:13;;;;;;;0.00;0.00;;;;;;;22.37;53.95;100335.03;7362290;19;20096;-62
2022/08/14 07:26:39;;;;;;;0.00;0.00;;;;;;;22.44;54.71;100328.25;7362955;19;20011;-61
2022/08/14 07:29:05;;;;;;;0.00;0.00;;;;;;;22.51;53.87;100324.16;7361105;19;20006;-62
2022/08/14 07:31:30;;;;;;;0.00;0.00;;;;;;;22.59;53.74;100330.69;7352096;19;20626;-61
2022/08/14 07:33:55;;;;;;;0.00;0.00;;;;;;;22.64;53.56;100328.50;7342512;19;20013;-61
2022/08/14 07:36:21;;;;;;;0.00;0.00;;;;;;;22.71;53.66;100324.41;7325461;19;20010;-61
2022/08/14 07:38:47;;;;;;;0.00;0.00;;;;;;;22.76;54.09;100327.56;7343954;19;20508;-62
2022/08/14 07:41:12;;;;;;;0.00;0.00;;;;;;;22.78;53.52;100330.94;7334466;19;20014;-62
2022/08/14 07:43:39;;;;;;;0.00;0.00;;;;;;;22.86;53.62;100325.84;7344315;19;20006;-62
2022/08/14 07:46:05;;;;;;;0.00;0.00;;;;;;;22.95;53.64;100317.13;7347326;19;20018;-61
2022/08/14 07:48:31;;;;;;;0.00;0.00;;;;;;;23.01;54.66;100322.00;7347527;19;20097;-62
2022/08/14 07:50:56;;;;;;;0.00;0.00;;;;;;;23.08;53.73;100325.00;7347711;19;20027;-61
2022/08/14 07:53:22;;;;;;;0.03;0.03;;;;;;;23.18;53.90;100317.09;7342257;19;20033;-61
2022/08/14 07:55:48;;;;;;;0.00;0.00;;;;;;;23.26;53.39;100319.97;7345598;19;20744;-62
2022/08/14 07:58:16;;;;;;;0.00;0.00;;;;;;;23.36;54.69;100331.56;7359206;19;20006;-62
2022/08/14 08:00:43;;;;;;;0.00;0.00;;;;;;;23.45;53.97;100325.50;7361488;19;20035;-62
2022/08/14 08:03:09;;;;;;;0.00;0.00;;;;;;;23.49;52.56;100310.94;7353842;19;20026;-61
2022/08/14 08:05:36;;;;;;;0.00;0.00;;;;;;;23.62;53.11;100325.91;7356738;19;20098;-61
2022/08/14 08:08:03;;;;;;;0.00;0.00;;;;;;;23.71;52.52;100325.16;7347060;19;20039;-61
2022/08/14 08:10:32;;;;;;;;;;;;;;;23.87;50.60;100325.56;7355351;19;20400;-61
2022/08/14 08:13:07;;;;;;;0.00;0.00;;;;;;;23.85;51.63;100316.88;7356263;19;22536;-61
2022/08/14 08:15:35;;;;;;;0.00;0.00;;;;;;;23.94;51.90;100326.75;7359769;19;20031;-62
2022/08/14 08:18:03;;;;;;;0.00;0.00;;;;;;;23.95;52.33;100323.13;7356239;19;20098;-61
2022/08/14 08:20:30;;;;;;;0.00;0.00;;;;;;;24.02;51.52;100329.59;7356413;19;20021;-61
2022/08/14 08:22:57;;;;;;;0.00;0.00;;;;;;;24.07;51.46;100327.41;7351972;19;20106;-61
2022/08/14 08:25:29;;;;;;;0.00;0.00;;;;;;;24.18;51.66;100322.97;7354239;19;20036;-61
2022/08/14 08:27:58;;;;;;;0.00;0.00;;;;;;;24.19;51.28;100324.69;7347778;19;20034;-61
2022/08/14 08:30:24;;;;;;;0.03;0.03;;;;;;;24.26;51.77;100320.50;7356318;19;20097;-58
2022/08/14 08:32:51;;;;;;;0.00;0.00;;;;;;;24.32;51.18;100309.28;7357585;19;20003;-61
2022/08/14 08:35:19;;;;;;;;;;;;;;;24.49;49.65;100311.38;7354621;19;20082;-61
2022/08/14 08:37:49;;;;;;;0.00;0.00;;;;;;;24.49;51.27;100307.88;7357014;19;19911;-62
2022/08/14 08:40:34;;;;;;;0.00;0.00;;;;;;;24.63;50.09;100307.47;7351733;19;20567;-62
2022/08/14 08:43:00;;;;;;;0.10;0.10;;;;;;;24.65;50.89;100312.72;7356842;19;20046;-61
2022/08/14 08:45:25;;;;;;;0.03;0.03;;;;;;;24.71;50.89;100305.00;7358071;19;20026;-61
2022/08/14 08:47:51;;;;;;;0.00;0.00;;;;;;;24.81;50.40;100310.38;7355271;19;20018;-62
2022/08/14 08:50:22;;;;;;;0.00;0.00;;;;;;;24.91;50.69;100311.25;7358775;19;20379;-62
2022/08/14 08:52:51;;;;;;;0.00;0.00;;;;;;;25.03;49.96;100310.13;7358514;19;20018;-61
2022/08/14 08:55:24;;;;;;;0.00;0.00;;;;;;;25.16;49.82;100309.09;7353897;19;20011;-62
2022/08/14 08:57:57;;;;;;;0.00;0.00;;;;;;;25.25;50.26;100314.44;7358070;19;20377;-62
2022/08/14 09:00:23;;;;;;;0.00;0.00;;;;;;;25.35;50.41;100314.47;7356449;19;20027;-62
2022/08/14 09:02:58;;;;;;;0.00;0.00;;;;;;;25.53;49.76;100323.47;7353347;19;20022;-62
2022/08/14 09:05:24;;;;;;;0.00;0.00;;;;;;;25.61;49.27;100320.09;7355803;19;20510;-62
2022/08/14 09:07:50;;;;;;;0.00;0.00;;;;;;;25.74;49.39;100319.78;7354170;19;21420;-62
2022/08/14 09:10:16;;;;;;;0.00;0.00;;;;;;;25.75;48.87;100300.13;7356762;19;20019;-62
2022/08/14 09:12:41;;;;;;;0.00;0.00;;;;;;;26.06;48.95;100317.69;7359132;19;20031;-62
2022/08/14 09:15:08;;;;;;;0.00;0.00;;;;;;;26.24;48.86;100319.63;7356156;19;20396;-61
2022/08/14 09:17:34;;;;;;;0.00;0.00;;;;;;;26.45;48.25;100309.56;7358282;19;20495;-61
2022/08/14 09:20:00;;;;;;;0.10;0.10;;;;;;;26.62;47.87;100311.50;7359948;19;20022;-62
2022/08/14 09:22:27;;;;;;;0.00;0.00;;;;;;;26.84;47.60;100312.09;7359018;19;20014;-62
2022/08/14 09:24:54;;;;;;;0.00;0.00;;;;;;;27.11;47.30;100306.72;7352809;19;20014;-62
2022/08/14 09:27:19;;;;;;;0.00;0.00;;;;;;;27.36;46.88;100315.03;7346989;19;20010;-62
2022/08/14 09:29:45;;;;;;;0.00;0.00;;;;;;;27.58;46.79;100309.22;7345535;19;20013;-62
2022/08/14 09:32:21;;;;;;;0.05;0.05;;;;;;;27.87;45.68;100305.44;7346660;19;20007;-62
2022/08/14 09:35:12;;;;;;;0.00;0.00;;;;;;;28.09;45.42;100302.25;7351486;19;20035;-61
2022/08/14 09:37:59;;;;;;;0.00;0.00;;;;;;;28.19;44.72;100292.25;7354789;19;20051;-62
2022/08/14 09:40:46;;;;;;;0.00;0.00;;;;;;;28.25;44.60;100300.69;7355443;19;20017;-62
2022/08/14 09:43:26;;;;;;;0.00;0.00;;;;;;;28.32;44.39;100299.03;7358659;19;21184;-62
2022/08/14 09:45:56;;;;;;;0.00;0.00;;;;;;;28.31;44.35;100305.41;7361070;19;20022;-62
2022/08/14 09:48:22;;;;;;;0.10;0.10;;;;;;;28.44;44.47;100305.84;7357559;19;20015;-62
2022/08/14 09:50:50;;;;;;;0.00;0.00;;;;;;;28.59;43.87;100303.38;7358849;19;20019;-62
2022/08/14 09:53:34;;;;;;;0.00;0.00;;;;;;;28.81;43.95;100296.59;7350062;19;20016;-62
2022/08/14 09:56:00;;;;;;;0.00;0.00;;;;;;;28.83;43.33;100294.59;7360385;19;20018;-62
2022/08/14 09:58:43;;;;;;;0.00;0.00;;;;;;;29.12;43.39;100303.13;7359526;19;20022;-62
2022/08/14 10:01:14;;;;;;;0.00;0.00;;;;;;;29.28;43.14;100309.53;7354263;19;20011;-62
2022/08/14 10:03:59;;;;;;;0.00;0.00;;;;;;;29.57;42.90;100307.25;7353985;19;20019;-62
2022/08/14 10:06:27;;;;;;;0.03;0.03;;;;;;;29.72;42.64;100302.03;7354369;19;20035;-62
2022/08/14 10:09:00;;;;;;;0.10;0.10;;;;;;;30.06;42.46;100309.94;7355805;19;20029;-61
2022/08/14 10:11:28;;;;;;;0.00;0.00;;;;;;;30.30;41.89;100305.50;7353338;19;20019;-62
2022/08/14 10:14:03;;;;;;;0.10;0.10;;;;;;;30.56;41.80;100284.53;7353510;19;20074;-62
2022/08/14 10:16:40;;;;;;;0.05;0.05;;;;;;;30.68;40.68;100293.94;7356500;19;20046;-62
2022/08/14 10:19:08;;;;;;;0.10;0.10;;;;;;;30.88;40.23;100298.94;7355523;19;20052;-62
2022/08/14 10:21:38;;;;;;;0.10;0.10;;;;;;;30.92;40.17;100298.41;7360563;19;20018;-62
2022/08/14 10:24:07;;;;;;;0.10;0.10;;;;;;;31.06;39.61;100286.00;7362727;19;20022;-62
2022/08/14 10:26:33;;;;;;;0.00;0.00;;;;;;;31.22;39.71;100274.28;7362713;19;20011;-62
2022/08/14 10:29:08;;;;;;;0.10;0.10;;;;;;;31.74;40.33;100282.50;7363714;19;20410;-62
2022/08/14 10:31:34;;;;;;;0.10;0.10;;;;;;;31.96;38.81;100272.69;7363815;19;20010;-62
2022/08/14 10:34:05;;;;;;;0.00;0.00;;;;;;;32.37;38.40;100275.00;7364892;19;20450;-62
2022/08/14 10:36:34;;;;;;;0.03;0.03;;;;;;;32.65;37.71;100272.47;7368274;19;20018;-62
2022/08/14 10:39:03;;;;;;;0.00;0.00;;;;;;;32.87;37.55;100265.22;7366233;19;20010;-62
2022/08/14 10:41:38;;;;;;;0.00;0.00;;;;;;;33.21;37.67;100267.31;7366136;19;20419;-62
2022/08/14 10:44:13;;;;;;;0.00;0.00;;;;;;;33.44;37.21;100263.56;7365464;19;20719;-62
2022/08/14 10:46:41;;;;;;;0.10;0.10;;;;;;;33.64;36.27;100256.47;7365853;19;20797;-62
2022/08/14 10:49:21;;;;;;;0.00;0.00;;;;;;;34.03;36.39;100241.56;7365749;19;20019;-62
2022/08/14 10:52:05;;;;;;;0.00;0.00;;;;;;;34.42;36.56;100240.09;7366694;19;20010;-62
2022/08/14 10:54:40;;;;;;;0.00;0.00;;;;;;;34.67;35.27;100238.56;7314547;19;21052;-61
2022/08/14 10:57:23;;;;;;;0.00;0.00;;;;;;;35.12;35.17;100230.78;7303959;19;20014;-62
2022/08/14 11:00:12;;;;;;;0.00;0.00;;;;;;;35.51;34.97;100221.88;7363174;19;20011;-62
2022/08/14 11:02:38;;;;;;;0.00;0.00;;;;;;;35.78;32.90;100222.66;7365042;19;20354;-62
2022/08/14 11:05:07;;;;;;;0.05;0.05;;;;;;;36.23;33.08;100220.09;7362218;19;20006;-62
2022/08/14 11:07:38;;;;;;;0.00;0.00;;;;;;;36.72;31.45;100213.22;7359004;19;21208;-62
2022/08/14 11:10:13;;;;;;;0.00;0.00;;;;;;;37.14;31.39;100208.16;7363219;19;20035;-62
2022/08/14 11:12:47;;;;;;;0.00;0.00;;;;;;;37.66;31.71;100203.34;7364599;19;20018;-62
2022/08/14 11:15:30;;;;;;;0.10;0.10;;;;;;;38.17;31.97;100183.97;7357071;19;20010;-62
2022/08/14 11:17:56;;;;;;;0.00;0.00;;;;;;;38.41;29.80;100186.81;7359246;19;20697;-62
2022/08/14 11:20:23;;;;;;;0.10;0.10;;;;;;;38.86;29.95;100187.28;7345287;19;20014;-62
2022/08/14 11:22:54;;;;;;;0.00;0.00;;;;;;;39.34;27.41;100178.13;7353899;19;20733;-63
2022/08/14 11:25:25;;;;;;;0.10;0.10;;;;;;;39.64;28.26;100174.47;7358716;19;20014;-63
2022/08/14 11:27:53;;;;;;;0.10;0.10;;;;;;;39.99;28.33;100168.13;7355169;19;20014;-62
2022/08/14 11:30:21;;;;;;;0.10;0.10;;;;;;;40.40;28.08;100167.06;7353475;19;20014;-62
2022/08/14 11:32:49;;;;;;;0.10;0.10;;;;;;;40.75;27.63;100158.72;7356587;19;20476;-62
2022/08/14 11:35:18;;;;;;;0.10;0.10;;;;;;;41.13;25.32;100159.97;7357197;19;20121;-63
2022/08/14 11:38:00;;;;;;;0.10;0.10;;;;;;;41.63;26.81;100164.59;7361985;19;20006;-62
2022/08/14 11:40:28;;;;;;;0.10;0.10;;;;;;;41.88;23.77;100162.22;7344085;19;20010;-62
2022/08/14 11:42:54;;;;;;;0.10;0.10;;;;;;;42.16;23.14;100160.34;7350249;19;20181;-62
2022/08/14 11:45:28;;;;;;;0.10;0.10;;;;;;;42.39;24.01;100154.63;7360010;19;20017;-63
2022/08/14 11:47:55;;;;;;;0.10;0.10;;;;;;;42.47;24.38;100156.06;7363368;19;20010;-62